Time;durP1;ratioP1;P1;durP2;ratioP2;P2;SDS_P1;SDS_P2;PMS_P1;PMS_P2;Temp;Humidity;BMP_temperature;BMP_pressure;BME280_temperature;BME280_humidity;BME280_pressure;Samples;Min_cycle;Max_cycle;Signal;HPM_P1;HPM_P2
2023/01/23 00:01:37;;;;;;;11.80;10.67;;;3.60;99.90;;;;;;6125189;23;20424;-74
2023/01/23 00:04:05;;;;;;;11.93;8.80;;;3.60;99.90;;;;;;6125055;23;20418;-74
2023/01/23 00:06:34;;;;;;;9.70;8.17;;;3.60;99.90;;;;;;6126763;23;20448;-73
2023/01/23 00:09:02;;;;;;;9.20;8.23;;;3.50;99.90;;;;;;6136307;23;20732;-73
2023/01/23 00:11:31;;;;;;;11.00;8.70;;;3.50;99.90;;;;;;6125549;23;20727;-74
2023/01/23 00:14:00;;;;;;;9.60;8.33;;;3.50;99.90;;;;;;6125630;23;20537;-74
2023/01/23 00:16:33;;;;;;;11.60;9.80;;;3.50;99.90;;;;;;6136271;23;20414;-74
2023/01/23 00:19:02;;;;;;;14.10;10.17;;;3.50;99.90;;;;;;6136619;23;20435;-74
2023/01/23 00:21:31;;;;;;;12.63;11.33;;;3.50;99.90;;;;;;6124863;23;20425;-74
2023/01/23 00:24:01;;;;;;;11.90;9.77;;;3.50;99.90;;;;;;6136066;23;20413;-74
2023/01/23 00:26:32;;;;;;;12.47;10.77;;;3.50;99.90;;;;;;6136174;23;20443;-74
2023/01/23 00:29:04;;;;;;;12.40;10.40;;;3.50;99.90;;;;;;6136370;23;20388;-73
2023/01/23 00:31:34;;;;;;;12.80;11.50;;;3.50;99.90;;;;;;6124889;23;20507;-74
2023/01/23 00:34:05;;;;;;;12.53;11.33;;;3.50;99.90;;;;;;6124834;23;20445;-74
2023/01/23 00:36:36;;;;;;;11.93;10.83;;;3.50;99.90;;;;;;6124694;23;20460;-73
2023/01/23 00:39:06;;;;;;;11.93;10.00;;;3.50;99.90;;;;;;6136449;23;20404;-73
2023/01/23 00:41:35;;;;;;;10.90;9.80;;;3.50;99.90;;;;;;6124742;23;20449;-73
2023/01/23 00:44:04;;;;;;;11.70;9.40;;;3.50;99.90;;;;;;6124954;23;20417;-73
2023/01/23 00:46:33;;;;;;;10.23;9.13;;;3.50;99.90;;;;;;6125778;23;20453;-73
2023/01/23 00:49:03;;;;;;;11.50;9.90;;;3.50;99.90;;;;;;6124633;23;20431;-74
2023/01/23 00:51:32;;;;;;;10.77;8.80;;;3.50;99.90;;;;;;6135950;23;20960;-74
2023/01/23 00:54:00;;;;;;;12.10;9.53;;;3.50;99.90;;;;;;6124621;23;20413;-74
2023/01/23 00:56:28;;;;;;;11.17;9.70;;;3.50;99.90;;;;;;6135785;23;20422;-74
2023/01/23 00:58:56;;;;;;;11.50;9.43;;;3.50;99.90;;;;;;6136679;23;20425;-74
2023/01/23 01:01:24;;;;;;;11.00;9.80;;;3.50;99.90;;;;;;6124614;23;20417;-74
2023/01/23 01:03:53;;;;;;;11.53;10.33;;;3.50;99.90;;;;;;6125318;23;20409;-74
2023/01/23 01:06:22;;;;;;;11.20;10.00;;;3.50;99.90;;;;;;6128237;23;20519;-74
2023/01/23 01:08:51;;;;;;;13.63;10.67;;;3.50;99.90;;;;;;6137585;23;20778;-74
2023/01/23 01:11:23;;;;;;;12.27;10.80;;;3.50;99.90;;;;;;6126487;23;20445;-74
2023/01/23 01:13:51;;;;;;;11.23;10.03;;;3.50;99.90;;;;;;6126169;23;20423;-74
2023/01/23 01:16:19;;;;;;;11.37;10.27;;;3.50;99.90;;;;;;6126091;23;20437;-74
2023/01/23 01:18:47;;;;;;;11.40;10.30;;;3.50;99.90;;;;;;6126314;23;20730;-74
2023/01/23 01:21:16;;;;;;;11.30;10.20;;;3.40;99.90;;;;;;6126140;23;20419;-74
2023/01/23 01:23:46;;;;;;;11.47;10.27;;;3.40;99.90;;;;;;6126169;23;20425;-74
2023/01/23 01:26:14;;;;;;;11.20;10.10;;;3.40;99.90;;;;;;6137743;23;20397;-74
2023/01/23 01:28:42;;;;;;;10.67;9.20;;;3.40;99.90;;;;;;6125971;23;20955;-74
2023/01/23 01:31:13;;;;;;;12.60;9.20;;;3.40;99.90;;;;;;6137312;23;20877;-74
2023/01/23 01:33:42;;;;;;;10.87;9.77;;;3.40;99.90;;;;;;6126165;23;20401;-74
2023/01/23 01:36:13;;;;;;;10.37;9.33;;;3.40;99.90;;;;;;6125982;23;20419;-74
2023/01/23 01:38:41;;;;;;;12.20;9.37;;;3.40;99.90;;;;;;6137300;23;20422;-74
2023/01/23 01:41:12;;;;;;;10.57;8.83;;;3.40;99.90;;;;;;6137398;23;20397;-74
2023/01/23 01:43:41;;;;;;;10.70;9.60;;;3.40;99.90;;;;;;6126397;23;20421;-74
2023/01/23 01:46:17;;;;;;;11.73;9.90;;;3.40;99.90;;;;;;6125784;23;20425;-74
2023/01/23 01:48:51;;;;;;;10.20;9.10;;;3.40;99.90;;;;;;6125957;23;20524;-74
2023/01/23 01:51:24;;;;;;;10.93;9.37;;;3.40;99.90;;;;;;6137723;23;20389;-74
2023/01/23 01:53:59;;;;;;;11.90;9.77;;;3.40;99.90;;;;;;6126044;23;20527;-74
2023/01/23 01:56:30;;;;;;;10.03;8.90;;;3.40;99.90;;;;;;6125967;23;20439;-74
2023/01/23 01:59:01;;;;;;;11.37;8.27;;;3.40;99.90;;;;;;6125879;23;20432;-73
2023/01/23 02:01:30;;;;;;;8.93;8.07;;;3.40;99.90;;;;;;6125859;23;20415;-74
2023/01/23 02:03:58;;;;;;;10.30;8.17;;;3.40;99.90;;;;;;6125764;23;20420;-73
2023/01/23 02:06:26;;;;;;;10.00;8.17;;;3.40;99.90;;;;;;6125744;23;20439;-73
2023/01/23 02:09:02;;;;;;;9.97;7.60;;;3.40;99.90;;;;;;6125687;23;20441;-73
2023/01/23 02:11:32;;;;;;;9.60;7.63;;;3.30;99.90;;;;;;6126647;23;20405;-73
2023/01/23 02:14:00;;;;;;;11.83;8.27;;;3.30;99.90;;;;;;6137275;23;20519;-73
2023/01/23 02:16:38;;;;;;;9.93;8.50;;;3.30;99.90;;;;;;6136955;23;20761;-73
2023/01/23 02:19:16;;;;;;;10.57;8.20;;;3.30;99.90;;;;;;6125990;23;20928;-73
2023/01/23 02:21:47;;;;;;;13.50;8.37;;;3.30;99.90;;;;;;6125566;23;20740;-73
2023/01/23 02:24:25;;;;;;;10.53;8.20;;;3.30;99.90;;;;;;6125935;23;20505;-74
2023/01/23 02:26:55;;;;;;;10.43;8.07;;;3.30;99.90;;;;;;6125523;23;20437;-74
2023/01/23 02:29:25;;;;;;;8.90;8.00;;;3.30;99.90;;;;;;6126266;23;20438;-73
2023/01/23 02:31:56;;;;;;;9.70;8.77;;;3.30;99.90;;;;;;6125715;23;20739;-73
2023/01/23 02:34:26;;;;;;;11.77;9.30;;;3.30;99.90;;;;;;6125494;23;20801;-73
2023/01/23 02:37:00;;;;;;;12.40;8.80;;;3.30;99.90;;;;;;6125393;23;20448;-74
2023/01/23 02:39:30;;;;;;;9.07;8.13;;;3.30;99.90;;;;;;6126149;23;20894;-73
2023/01/23 02:42:01;;;;;;;9.20;8.20;;;3.30;99.90;;;;;;6137349;23;20426;-73
2023/01/23 02:44:43;;;;;;;11.47;10.00;;;3.30;99.90;;;;;;6125421;23;20417;-74
2023/01/23 02:47:13;;;;;;;11.70;9.20;;;3.30;99.90;;;;;;6125202;23;20449;-73
2023/01/23 02:49:41;;;;;;;14.17;9.20;;;3.20;99.90;;;;;;6125195;23;20479;-74
2023/01/23 02:52:10;;;;;;;12.00;8.57;;;3.20;99.90;;;;;;6125254;23;20417;-73
2023/01/23 02:54:39;;;;;;;10.37;9.27;;;3.20;99.90;;;;;;6125403;23;20509;-73
2023/01/23 02:57:09;;;;;;;11.67;9.00;;;3.20;99.90;;;;;;6125539;23;20448;-73
2023/01/23 03:02:25;;;;;;;11.37;8.67;;;3.20;99.90;;;;;;6126378;23;20405;-73
2023/01/23 03:04:54;;;;;;;11.07;9.33;;;3.10;99.90;;;;;;6125375;23;20417;-74
2023/01/23 03:07:22;;;;;;;11.50;9.87;;;3.10;99.90;;;;;;6136593;23;20425;-73
2023/01/23 03:09:50;;;;;;;9.83;8.17;;;3.10;99.90;;;;;;6136718;23;20430;-73
2023/01/23 03:12:19;;;;;;;11.40;9.20;;;3.10;99.90;;;;;;6125199;23;20425;-73
2023/01/23 03:14:52;;;;;;;10.90;8.80;;;3.10;99.90;;;;;;6136799;23;20877;-73
2023/01/23 03:17:21;;;;;;;11.57;8.30;;;3.10;99.90;;;;;;6136695;23;20421;-73
2023/01/23 03:19:49;;;;;;;10.40;9.30;;;3.10;99.90;;;;;;6125238;23;20811;-73
2023/01/23 03:22:18;;;;;;;11.13;9.10;;;3.10;99.90;;;;;;6125109;23;20524;-73
2023/01/23 03:24:46;;;;;;;11.40;8.80;;;3.10;99.90;;;;;;6136807;23;20732;-73
2023/01/23 03:27:14;;;;;;;11.60;9.43;;;3.10;99.90;;;;;;6124725;23;20435;-74
2023/01/23 03:32:33;;;;;;;9.77;8.77;;;3.10;99.90;;;;;;6125364;23;20418;-73
2023/01/23 03:35:01;;;;;;;11.40;9.70;;;3.10;99.90;;;;;;6125327;23;20413;-73
2023/01/23 03:37:30;;;;;;;10.63;9.53;;;3.10;99.90;;;;;;6124895;23;20436;-73
2023/01/23 03:42:43;;;;;;;10.47;9.37;;;3.10;99.90;;;;;;6125027;23;20433;-73
2023/01/23 03:45:16;;;;;;;11.50;9.80;;;3.10;99.90;;;;;;6124973;23;20429;-74
2023/01/23 03:47:44;;;;;;;11.30;10.10;;;3.10;99.90;;;;;;6124824;23;20436;-73
2023/01/23 03:50:12;;;;;;;11.03;9.80;;;3.20;99.90;;;;;;6124849;23;20816;-73
2023/01/23 03:52:41;;;;;;;11.07;9.90;;;3.10;99.90;;;;;;6124923;23;20976;-73
2023/01/23 03:55:10;;;;;;;11.60;10.40;;;3.10;99.90;;;;;;6124903;23;20776;-73
2023/01/23 03:57:39;;;;;;;12.27;10.07;;;3.10;99.90;;;;;;6125466;23;20443;-73
2023/01/23 04:00:16;;;;;;;13.60;11.57;;;3.10;99.90;;;;;;6124956;23;20975;-73
2023/01/23 04:02:53;;;;;;;13.27;11.20;;;3.10;99.90;;;;;;6126402;23;20403;-73
2023/01/23 04:05:21;;;;;;;12.63;11.33;;;3.10;99.90;;;;;;6124804;23;20432;-73
2023/01/23 04:07:49;;;;;;;15.17;13.57;;;3.10;99.90;;;;;;6125411;23;21016;-73
2023/01/23 04:10:19;;;;;;;14.67;13.27;;;3.10;99.90;;;;;;6126567;23;20531;-73
2023/01/23 04:12:53;;;;;;;16.00;13.47;;;3.10;99.90;;;;;;6125335;23;20519;-73
2023/01/23 04:15:22;;;;;;;15.73;13.37;;;3.10;99.90;;;;;;6125010;23;20759;-73
2023/01/23 04:17:53;;;;;;;15.03;13.47;;;3.10;99.90;;;;;;6124886;23;20433;-73
2023/01/23 04:20:24;;;;;;;13.23;11.90;;;3.10;99.90;;;;;;6126239;23;20468;-73
2023/01/23 04:22:53;;;;;;;19.23;12.13;;;3.20;99.90;;;;;;6125171;23;20420;-73
2023/01/23 04:25:22;;;;;;;12.20;11.00;;;3.20;99.90;;;;;;6124856;23;20490;-73
2023/01/23 04:27:50;;;;;;;14.17;11.80;;;3.20;99.90;;;;;;6136114;23;20420;-73
2023/01/23 04:30:19;;;;;;;12.77;10.57;;;3.10;99.90;;;;;;6124881;23;20440;-73
2023/01/23 04:32:48;;;;;;;14.60;12.93;;;3.20;99.90;;;;;;6125155;23;20447;-73
2023/01/23 04:35:19;;;;;;;16.87;15.30;;;3.20;99.90;;;;;;6125122;23;20416;-73
2023/01/23 04:37:47;;;;;;;18.50;16.53;;;3.10;99.90;;;;;;6124910;23;20535;-73
2023/01/23 04:40:16;;;;;;;16.37;14.70;;;3.10;99.90;;;;;;6126529;23;20413;-73
2023/01/23 04:42:55;;;;;;;17.80;14.27;;;3.10;99.90;;;;;;6127696;23;20431;-73
2023/01/23 04:45:31;;;;;;;15.40;13.90;;;3.10;99.90;;;;;;6126492;23;20489;-73
2023/01/23 04:48:32;;;;;;;14.70;13.20;;;3.10;99.90;;;;;;6127088;23;20934;-73
2023/01/23 04:51:00;;;;;;;15.90;12.30;;;3.20;99.90;;;;;;6126505;23;20496;-73
2023/01/23 04:53:28;;;;;;;14.07;12.67;;;3.20;99.90;;;;;;6138415;23;20403;-73
2023/01/23 04:56:00;;;;;;;13.73;12.33;;;3.20;99.90;;;;;;6137919;23;20384;-73
2023/01/23 04:58:29;;;;;;;14.37;12.30;;;3.10;99.90;;;;;;6126488;23;20805;-74
2023/01/23 05:01:08;;;;;;;11.57;10.40;;;3.20;99.90;;;;;;6126547;23;20413;-73
2023/01/23 05:03:38;;;;;;;14.90;11.73;;;3.20;99.90;;;;;;6126411;23;20410;-73
2023/01/23 05:06:07;;;;;;;14.30;11.60;;;3.20;99.90;;;;;;6126339;23;20431;-73
2023/01/23 05:08:35;;;;;;;13.50;12.20;;;3.20;99.90;;;;;;6126334;23;20456;-73
2023/01/23 05:11:19;;;;;;;12.50;11.30;;;3.20;99.90;;;;;;6126996;23;20416;-73
2023/01/23 05:13:48;;;;;;;12.93;11.73;;;3.20;99.90;;;;;;6126388;23;20499;-73
2023/01/23 05:16:16;;;;;;;14.77;10.83;;;3.20;99.90;;;;;;6126881;23;20425;-73
2023/01/23 05:19:16;;;;;;;12.73;11.20;;;3.20;99.90;;;;;;6137797;23;20401;-73
2023/01/23 05:21:44;;;;;;;13.73;11.27;;;3.20;99.90;;;;;;6126301;23;20444;-73
2023/01/23 05:24:17;;;;;;;13.20;11.17;;;3.20;99.90;;;;;;6126303;23;20409;-73
2023/01/23 05:26:45;;;;;;;12.83;11.17;;;3.20;99.90;;;;;;6126338;23;20440;-73
2023/01/23 05:29:14;;;;;;;14.50;12.30;;;3.20;99.90;;;;;;6126085;23;20437;-73
2023/01/23 05:31:52;;;;;;;13.23;10.90;;;3.20;99.90;;;;;;6126479;23;20901;-74
2023/01/23 05:34:39;;;;;;;12.97;11.50;;;3.20;99.90;;;;;;6138228;23;20874;-73
2023/01/23 05:37:19;;;;;;;13.80;12.07;;;3.20;99.90;;;;;;6126091;23;20440;-73
2023/01/23 05:39:51;;;;;;;12.13;10.93;;;3.20;99.90;;;;;;6127206;23;20421;-73
2023/01/23 05:42:20;;;;;;;12.90;11.60;;;3.20;99.90;;;;;;6127530;23;20419;-74
2023/01/23 05:44:48;;;;;;;13.10;11.80;;;3.20;99.90;;;;;;6136109;23;20402;-73
2023/01/23 05:47:27;;;;;;;14.20;12.43;;;3.20;99.90;;;;;;6127925;23;20437;-74
2023/01/23 05:49:58;;;;;;;16.43;11.17;;;3.20;99.90;;;;;;6125769;23;20523;-73
2023/01/23 05:52:30;;;;;;;13.03;11.57;;;3.20;99.90;;;;;;6126218;23;20598;-73
2023/01/23 05:54:58;;;;;;;13.80;12.40;;;3.20;99.90;;;;;;6126050;23;20441;-73
2023/01/23 05:57:27;;;;;;;12.83;11.53;;;3.20;99.90;;;;;;6125900;23;20436;-74
2023/01/23 06:00:15;;;;;;;13.37;11.97;;;3.20;99.90;;;;;;6127933;23;20385;-73
2023/01/23 06:02:50;;;;;;;12.13;10.83;;;3.20;99.90;;;;;;6126341;23;20413;-73
2023/01/23 06:05:47;;;;;;;12.57;11.30;;;3.20;99.90;;;;;;6126558;23;20440;-73
2023/01/23 06:08:19;;;;;;;12.30;11.00;;;3.20;99.90;;;;;;6125935;23;20524;-73
2023/01/23 06:10:48;;;;;;;11.93;10.80;;;3.20;99.90;;;;;;6125871;23;20988;-73
2023/01/23 06:13:16;;;;;;;11.37;10.17;;;3.20;99.90;;;;;;6126045;23;20413;-73
2023/01/23 06:15:44;;;;;;;12.53;11.30;;;3.20;99.90;;;;;;6125880;23;20529;-73
2023/01/23 06:18:12;;;;;;;12.37;11.07;;;3.20;99.90;;;;;;6126039;23;20433;-73
2023/01/23 06:20:40;;;;;;;13.30;11.93;;;3.20;99.90;;;;;;6125839;23;20426;-73
2023/01/23 06:23:10;;;;;;;12.27;11.00;;;3.20;99.90;;;;;;6126559;23;20723;-73
2023/01/23 06:25:39;;;;;;;11.80;10.50;;;3.20;99.90;;;;;;6125730;23;20503;-73
2023/01/23 06:28:10;;;;;;;14.73;13.23;;;3.20;99.90;;;;;;6125713;23;20447;-73
2023/01/23 06:30:38;;;;;;;14.93;12.53;;;3.20;99.90;;;;;;6125772;23;20496;-73
2023/01/23 06:33:17;;;;;;;13.03;11.63;;;3.20;99.90;;;;;;6126013;23;20405;-73
2023/01/23 06:35:46;;;;;;;12.93;11.30;;;3.20;99.90;;;;;;6125603;23;20428;-73
2023/01/23 06:38:15;;;;;;;13.47;11.70;;;3.20;99.90;;;;;;6125752;23;20441;-73
2023/01/23 06:40:44;;;;;;;13.23;11.80;;;3.20;99.90;;;;;;6125567;23;20809;-73
2023/01/23 06:43:27;;;;;;;14.57;12.97;;;3.20;99.90;;;;;;6125611;23;20916;-74
2023/01/23 06:45:55;;;;;;;14.30;12.90;;;3.20;99.90;;;;;;6125370;23;20425;-74
2023/01/23 06:48:24;;;;;;;14.53;12.97;;;3.20;99.90;;;;;;6125246;23;20783;-73
2023/01/23 06:50:53;;;;;;;15.13;13.57;;;3.20;99.90;;;;;;6125371;23;20500;-73
2023/01/23 06:53:22;;;;;;;14.63;13.00;;;3.20;99.90;;;;;;6125456;23;20421;-73
2023/01/23 06:55:52;;;;;;;16.73;13.63;;;3.20;99.90;;;;;;6125561;23;20814;-73
2023/01/23 06:58:20;;;;;;;12.90;10.40;;;3.20;99.90;;;;;;6125424;23;20512;-73
2023/01/23 07:00:49;;;;;;;16.70;13.10;;;3.20;99.90;;;;;;6125448;23;20413;-73
2023/01/23 07:03:37;;;;;;;16.80;15.10;;;3.20;99.90;;;;;;6126763;23;20811;-73
2023/01/23 07:06:06;;;;;;;15.90;14.20;;;3.20;99.90;;;;;;6125098;23;20449;-73
2023/01/23 07:08:35;;;;;;;17.17;14.90;;;3.10;99.90;;;;;;6125526;23;20496;-73
2023/01/23 07:11:04;;;;;;;15.90;14.20;;;3.20;99.90;;;;;;6125250;23;20437;-73
2023/01/23 07:13:32;;;;;;;15.67;13.97;;;3.10;99.90;;;;;;6125276;23;20455;-73
2023/01/23 07:16:01;;;;;;;18.00;14.90;;;3.10;99.90;;;;;;6125069;23;20479;-73
2023/01/23 07:18:29;;;;;;;17.30;15.37;;;3.10;99.90;;;;;;6125423;23;20410;-73
2023/01/23 07:20:57;;;;;;;17.60;14.50;;;3.20;99.90;;;;;;6125385;23;20469;-73
2023/01/23 07:23:25;;;;;;;15.93;14.30;;;3.20;99.90;;;;;;6136550;23;20408;-73
2023/01/23 07:26:00;;;;;;;17.50;14.63;;;3.10;99.90;;;;;;6136471;23;20991;-73
2023/01/23 07:28:28;;;;;;;17.47;15.63;;;3.10;99.90;;;;;;6136495;23;20416;-73
2023/01/23 07:30:58;;;;;;;16.67;14.80;;;3.10;99.90;;;;;;6136331;23;20433;-73
2023/01/23 07:33:26;;;;;;;16.30;14.70;;;3.10;99.90;;;;;;6136373;23;20404;-73
2023/01/23 07:35:54;;;;;;;16.87;15.07;;;3.10;99.90;;;;;;6136282;23;20741;-74
2023/01/23 07:38:23;;;;;;;20.73;15.43;;;3.10;99.90;;;;;;6126389;23;20932;-73
2023/01/23 07:40:51;;;;;;;16.23;14.43;;;3.10;99.90;;;;;;6136273;23;20740;-73
2023/01/23 07:43:20;;;;;;;16.80;13.77;;;3.10;99.90;;;;;;6126837;23;20421;-73
2023/01/23 07:45:49;;;;;;;16.00;14.30;;;3.10;99.90;;;;;;6136329;23;20900;-73
2023/01/23 07:48:17;;;;;;;16.00;14.40;;;3.10;99.90;;;;;;6136237;23;20456;-73
2023/01/23 07:50:45;;;;;;;16.23;14.50;;;3.10;99.90;;;;;;6136423;23;20971;-73
2023/01/23 07:53:13;;;;;;;19.23;14.50;;;3.10;99.90;;;;;;6136625;23;20394;-73
2023/01/23 07:55:41;;;;;;;19.20;16.17;;;3.10;99.90;;;;;;6136193;23;20771;-73
2023/01/23 07:58:09;;;;;;;19.30;17.10;;;3.10;99.90;;;;;;6136069;23;20419;-73
2023/01/23 08:00:40;;;;;;;17.63;15.83;;;3.10;99.90;;;;;;6124980;23;20448;-73
2023/01/23 08:03:08;;;;;;;17.77;15.90;;;3.20;99.90;;;;;;6124955;23;20401;-73
2023/01/23 08:05:36;;;;;;;18.83;16.90;;;3.10;99.90;;;;;;6136153;23;20398;-73
2023/01/23 08:08:05;;;;;;;18.90;16.73;;;3.20;99.90;;;;;;6136387;23;20832;-73
2023/01/23 08:10:40;;;;;;;19.07;16.93;;;3.20;99.90;;;;;;6124850;23;20439;-73
2023/01/23 08:13:08;;;;;;;17.77;15.63;;;3.20;99.90;;;;;;6127021;23;20399;-73
2023/01/23 08:15:38;;;;;;;20.10;16.77;;;3.20;99.90;;;;;;6139430;23;20405;-73
2023/01/23 08:18:06;;;;;;;19.20;17.00;;;3.20;99.90;;;;;;6127120;23;20444;-73
2023/01/23 08:20:34;;;;;;;18.30;16.40;;;3.20;99.90;;;;;;6138321;23;20398;-73
2023/01/23 08:23:03;;;;;;;19.93;17.60;;;3.20;99.90;;;;;;6127096;23;20419;-73
2023/01/23 08:25:31;;;;;;;20.80;17.00;;;3.20;99.90;;;;;;6127913;23;20424;-73
2023/01/23 08:27:59;;;;;;;22.80;17.93;;;3.20;99.90;;;;;;6138231;23;20504;-73
2023/01/23 08:30:27;;;;;;;19.90;17.87;;;3.20;99.90;;;;;;6138473;23;20401;-73
2023/01/23 08:32:56;;;;;;;20.60;17.63;;;3.20;99.90;;;;;;6128532;23;20418;-73
2023/01/23 08:35:25;;;;;;;22.07;18.03;;;3.20;99.90;;;;;;6138420;23;20401;-73
2023/01/23 08:37:53;;;;;;;19.20;16.77;;;3.20;99.90;;;;;;6126705;23;20472;-73
2023/01/23 08:40:21;;;;;;;20.90;17.03;;;3.20;99.90;;;;;;6126501;23;20425;-73
2023/01/23 08:42:49;;;;;;;19.93;17.73;;;3.20;99.90;;;;;;6137896;23;20472;-73
2023/01/23 08:45:18;;;;;;;19.97;16.10;;;3.30;99.90;;;;;;6132931;23;20416;-74
2023/01/23 08:47:46;;;;;;;21.63;17.37;;;3.30;99.90;;;;;;6128306;23;20421;-73
2023/01/23 08:50:15;;;;;;;20.90;18.70;;;3.30;99.90;;;;;;6137791;23;20714;-73
2023/01/23 08:52:43;;;;;;;20.30;18.20;;;3.30;99.90;;;;;;6137789;23;20843;-73
2023/01/23 08:55:12;;;;;;;20.77;17.87;;;3.30;99.90;;;;;;6138482;23;20808;-73
2023/01/23 08:57:40;;;;;;;20.80;18.67;;;3.30;99.90;;;;;;6137746;23;20474;-73
2023/01/23 09:00:10;;;;;;;20.47;18.33;;;3.30;99.90;;;;;;6137788;23;20399;-73
2023/01/23 09:02:38;;;;;;;21.70;19.00;;;3.30;99.90;;;;;;6126413;23;20426;-73
2023/01/23 09:05:07;;;;;;;19.93;17.10;;;3.30;99.90;;;;;;6137688;23;20397;-73
2023/01/23 09:07:36;;;;;;;21.70;17.63;;;3.30;99.90;;;;;;6137558;23;20430;-73
2023/01/23 09:10:05;;;;;;;20.00;17.90;;;3.30;99.90;;;;;;6126478;23;20447;-73
2023/01/23 09:12:34;;;;;;;21.03;18.83;;;3.30;99.90;;;;;;6126174;23;21069;-73
2023/01/23 09:15:02;;;;;;;21.87;18.60;;;3.30;99.90;;;;;;6137576;23;20460;-73
2023/01/23 09:17:30;;;;;;;21.50;18.73;;;3.30;99.90;;;;;;6126227;23;20515;-73
2023/01/23 09:19:59;;;;;;;24.57;20.37;;;3.30;99.90;;;;;;6137855;23;20701;-73
2023/01/23 09:22:27;;;;;;;23.93;21.33;;;3.30;99.90;;;;;;6137492;23;20436;-73
2023/01/23 09:24:57;;;;;;;21.83;19.23;;;3.40;99.90;;;;;;6125559;23;20416;-73
2023/01/23 09:27:25;;;;;;;20.37;18.27;;;3.40;99.90;;;;;;6126094;23;20830;-73
2023/01/23 09:29:53;;;;;;;19.77;17.63;;;3.40;99.90;;;;;;6137782;23;20709;-73
2023/01/23 09:32:21;;;;;;;21.00;18.70;;;3.40;99.90;;;;;;6128133;23;20441;-73
2023/01/23 09:34:49;;;;;;;20.23;18.13;;;3.40;99.90;;;;;;6127995;23;20408;-73
2023/01/23 09:37:18;;;;;;;20.50;18.40;;;3.40;99.90;;;;;;6125938;23;20441;-73
2023/01/23 09:39:46;;;;;;;23.60;18.80;;;3.40;99.90;;;;;;6137823;23;20406;-73
2023/01/23 09:42:19;;;;;;;26.07;21.60;;;3.50;99.90;;;;;;6126016;23;20413;-73
2023/01/23 09:44:51;;;;;;;23.50;20.27;;;3.50;99.90;;;;;;6137409;23;20387;-73
2023/01/23 09:47:26;;;;;;;21.70;19.33;;;3.50;99.90;;;;;;6137256;23;20514;-73
2023/01/23 09:49:59;;;;;;;22.20;18.67;;;3.50;99.90;;;;;;6128009;23;20467;-73
2023/01/23 09:52:31;;;;;;;24.93;20.20;;;3.50;99.90;;;;;;6137212;23;20417;-73
2023/01/23 09:55:04;;;;;;;20.53;18.23;;;3.50;99.90;;;;;;6127442;23;20416;-73
2023/01/23 09:57:39;;;;;;;21.23;18.90;;;3.50;99.90;;;;;;6137810;23;20512;-73
2023/01/23 10:00:15;;;;;;;20.07;17.50;;;3.60;99.90;;;;;;6137506;23;20377;-73
2023/01/23 10:02:45;;;;;;;21.73;19.40;;;3.60;99.90;;;;;;6126010;23;20424;-74
2023/01/23 10:05:15;;;;;;;22.63;20.27;;;3.60;99.90;;;;;;6137695;23;20412;-73
2023/01/23 10:08:02;;;;;;;24.70;20.67;;;3.60;99.90;;;;;;6125729;23;20439;-73
2023/01/23 10:10:43;;;;;;;20.13;18.03;;;3.60;99.90;;;;;;6137566;23;20472;-73
2023/01/23 10:13:16;;;;;;;21.80;18.63;;;3.60;99.90;;;;;;6137765;23;20417;-73
2023/01/23 10:16:18;;;;;;;21.57;19.33;;;3.60;99.90;;;;;;6137443;23;20461;-73
2023/01/23 10:18:53;;;;;;;20.73;18.73;;;3.70;99.90;;;;;;6125683;23;20432;-73
2023/01/23 10:21:28;;;;;;;22.53;20.23;;;3.70;99.90;;;;;;6137764;23;20377;-73
2023/01/23 10:24:03;;;;;;;22.73;20.33;;;3.70;99.90;;;;;;6125717;23;20499;-73
2023/01/23 10:26:36;;;;;;;22.00;19.70;;;3.80;99.90;;;;;;6137312;23;20415;-73
2023/01/23 10:29:13;;;;;;;21.63;19.40;;;3.80;99.90;;;;;;6137349;23;20386;-73
2023/01/23 10:31:46;;;;;;;22.87;20.43;;;3.80;99.90;;;;;;6125641;23;20955;-73
2023/01/23 10:34:20;;;;;;;23.53;19.50;;;3.80;99.90;;;;;;6125767;23;20891;-73
2023/01/23 10:37:02;;;;;;;21.90;19.37;;;3.80;99.90;;;;;;6136614;23;20428;-73
2023/01/23 10:39:40;;;;;;;23.00;20.43;;;3.90;99.90;;;;;;6137354;23;20390;-73
2023/01/23 10:42:11;;;;;;;21.10;18.80;;;3.90;99.90;;;;;;6127437;23;20469;-73
2023/01/23 10:44:40;;;;;;;24.23;20.90;;;3.90;99.90;;;;;;6137233;23;20473;-73
2023/01/23 10:47:19;;;;;;;21.97;19.67;;;3.90;99.90;;;;;;6136802;23;20991;-73
2023/01/23 10:49:47;;;;;;;20.40;18.30;;;3.90;99.90;;;;;;6127319;23;20397;-74
2023/01/23 10:52:34;;;;;;;25.47;19.70;;;3.90;99.90;;;;;;6126924;23;20437;-73
2023/01/23 10:55:05;;;;;;;21.60;19.30;;;3.90;99.90;;;;;;6125518;23;20484;-73
2023/01/23 10:57:45;;;;;;;21.90;19.57;;;3.90;99.90;;;;;;6125396;23;20928;-73
2023/01/23 11:00:21;;;;;;;22.97;20.57;;;3.90;99.90;;;;;;6125491;23;20496;-73
2023/01/23 11:02:50;;;;;;;22.37;20.17;;;4.00;99.90;;;;;;6137057;23;20392;-74
2023/01/23 11:05:44;;;;;;;24.00;21.17;;;4.00;99.90;;;;;;6137396;23;20397;-73
2023/01/23 11:08:26;;;;;;;23.30;20.30;;;4.00;99.90;;;;;;6114909;23;20531;-73
2023/01/23 11:10:54;;;;;;;24.10;21.27;;;4.00;99.90;;;;;;6137201;23;20382;-73
2023/01/23 11:13:27;;;;;;;22.23;19.83;;;4.10;99.90;;;;;;6126655;23;20433;-73
2023/01/23 11:15:57;;;;;;;27.43;20.70;;;4.10;99.90;;;;;;6136929;23;20701;-73
2023/01/23 11:18:32;;;;;;;21.83;19.73;;;4.10;99.90;;;;;;6125885;23;20424;-73
2023/01/23 11:21:00;;;;;;;21.70;19.50;;;4.10;99.90;;;;;;6137114;23;20439;-74
2023/01/23 11:23:30;;;;;;;21.60;19.30;;;4.20;99.90;;;;;;6136645;23;20398;-74
2023/01/23 11:25:58;;;;;;;24.03;21.63;;;4.20;99.90;;;;;;6126611;23;20897;-73
2023/01/23 11:28:29;;;;;;;22.13;19.77;;;4.20;99.90;;;;;;6136785;23;20480;-73
2023/01/23 11:31:06;;;;;;;25.50;22.90;;;4.20;99.90;;;;;;6125182;23;20414;-73
2023/01/23 11:33:51;;;;;;;27.30;24.53;;;4.20;99.90;;;;;;6125059;23;20433;-73
2023/01/23 11:36:36;;;;;;;27.93;24.83;;;4.30;99.90;;;;;;6136829;23;20381;-73
2023/01/23 11:39:15;;;;;;;23.07;20.77;;;4.30;99.90;;;;;;6136877;23;20396;-73
2023/01/23 11:41:45;;;;;;;22.77;20.07;;;4.30;99.90;;;;;;6126925;23;20398;-73
2023/01/23 11:44:17;;;;;;;25.10;22.70;;;4.30;99.90;;;;;;6125121;23;20417;-73
2023/01/23 11:47:16;;;;;;;23.83;21.40;;;4.30;99.90;;;;;;6136157;23;20438;-73
2023/01/23 11:50:06;;;;;;;23.97;21.60;;;4.30;99.90;;;;;;6136921;23;20421;-73
2023/01/23 11:52:47;;;;;;;24.43;21.60;;;4.30;99.90;;;;;;6137242;23;20798;-73
2023/01/23 11:55:49;;;;;;;24.30;21.80;;;4.30;99.90;;;;;;6136884;23;20853;-73
2023/01/23 11:58:31;;;;;;;25.83;22.50;;;4.30;99.90;;;;;;6136089;23;20455;-72
2023/01/23 12:01:16;;;;;;;24.10;21.07;;;4.40;99.90;;;;;;6126395;23;20440;-73
2023/01/23 12:04:24;;;;;;;25.80;22.50;;;4.40;99.90;;;;;;6136945;23;20451;-72
2023/01/23 12:07:05;;;;;;;23.77;21.30;;;4.40;99.90;;;;;;6135901;23;20424;-72
2023/01/23 12:09:44;;;;;;;24.90;22.30;;;4.40;99.90;;;;;;6126999;23;20409;-72
2023/01/23 12:12:23;;;;;;;24.90;22.30;;;4.30;99.90;;;;;;6127160;23;20394;-72
2023/01/23 12:15:03;;;;;;;25.03;22.33;;;4.40;99.90;;;;;;6138655;23;20385;-72
2023/01/23 12:17:40;;;;;;;24.13;21.40;;;4.40;99.90;;;;;;6125875;23;20441;-73
2023/01/23 12:20:31;;;;;;;24.40;21.83;;;4.40;99.90;;;;;;6138452;23;20393;-73
2023/01/23 12:23:18;;;;;;;25.93;23.33;;;4.40;99.90;;;;;;6125961;23;20862;-73
2023/01/23 12:25:51;;;;;;;30.70;22.10;;;4.40;99.90;;;;;;6137150;23;20386;-73
2023/01/23 12:28:31;;;;;;;24.43;21.83;;;4.40;99.90;;;;;;6136576;23;20429;-72
2023/01/23 12:31:17;;;;;;;25.30;22.70;;;4.50;99.90;;;;;;6124839;23;20405;-72
2023/01/23 12:34:05;;;;;;;27.63;23.10;;;4.50;99.90;;;;;;6135982;23;20451;-72
2023/01/23 12:36:49;;;;;;;26.00;23.30;;;4.50;99.90;;;;;;6136273;23;20417;-73
2023/01/23 12:39:58;;;;;;;26.80;22.80;;;4.50;99.90;;;;;;6126631;23;20810;-73
2023/01/23 12:42:30;;;;;;;26.03;23.37;;;4.50;99.90;;;;;;6124824;23;20825;-73
2023/01/23 12:45:03;;;;;;;32.80;26.50;;;4.50;99.90;;;;;;6136350;23;20849;-74
2023/01/23 12:47:36;;;;;;;24.70;22.13;;;4.50;99.90;;;;;;6135981;23;20740;-75
2023/01/23 12:50:15;;;;;;;25.27;22.57;;;4.50;99.90;;;;;;6126619;23;20405;-73
2023/01/23 12:52:46;;;;;;;23.43;20.93;;;4.50;99.90;;;;;;6126588;23;20772;-73
2023/01/23 12:55:20;;;;;;;28.70;25.60;;;4.50;99.90;;;;;;6125413;23;20420;-74
2023/01/23 12:57:53;;;;;;;28.23;24.30;;;4.50;99.90;;;;;;6136177;23;20445;-73
2023/01/23 13:01:01;;;;;;;28.53;25.43;;;4.50;99.90;;;;;;6125912;23;20749;-72
2023/01/23 13:04:02;;;;;;;25.20;22.10;;;4.60;99.90;;;;;;6126531;23;20464;-72
2023/01/23 13:06:57;;;;;;;24.07;21.47;;;4.60;99.90;;;;;;6138153;23;20444;-72
2023/01/23 13:09:36;;;;;;;24.70;21.57;;;4.60;99.90;;;;;;6138439;23;20464;-72
2023/01/23 13:12:17;;;;;;;24.17;21.60;;;4.60;99.90;;;;;;6138398;23;20472;-73
2023/01/23 13:14:51;;;;;;;23.97;21.23;;;4.60;99.90;;;;;;6137591;23;20968;-73
2023/01/23 13:17:41;;;;;;;23.90;21.60;;;4.60;99.90;;;;;;6138274;23;20475;-74